Time;durP1;ratioP1;P1;durP2;ratioP2;P2;SDS_P1;SDS_P2;PMS_P1;PMS_P2;Temp;Humidity;BMP_temperature;BMP_pressure;BME280_temperature;BME280_humidity;BME280_pressure;Samples;Min_cycle;Max_cycle;Signal;HPM_P1;HPM_P2
2022/03/12 00:00:31;;;;;;;7.57;4.55;;;6.50;25.80;;;;;;5119150;28;20024;-65
2022/03/12 00:02:57;;;;;;;8.87;5.00;;;6.50;25.80;;;;;;5120508;28;20121;-65
2022/03/12 00:05:30;;;;;;;11.77;5.32;;;6.50;25.50;;;;;;5120392;28;20247;-66
2022/03/12 00:07:57;;;;;;;10.60;5.40;;;6.40;25.40;;;;;;5120467;28;20095;-66
2022/03/12 00:10:23;;;;;;;9.60;4.70;;;6.50;25.30;;;;;;5120376;28;20252;-67
2022/03/12 00:12:50;;;;;;;10.50;5.00;;;6.50;25.50;;;;;;5120348;28;20024;-66
2022/03/12 00:15:16;;;;;;;9.60;5.28;;;6.50;25.40;;;;;;5120356;28;20020;-66
2022/03/12 00:17:46;;;;;;;8.38;4.55;;;6.50;25.00;;;;;;5120322;28;20028;-65
2022/03/12 00:20:13;;;;;;;11.38;5.22;;;6.60;24.90;;;;;;5118994;28;20131;-66
2022/03/12 00:22:50;;;;;;;9.15;5.32;;;6.60;24.90;;;;;;5120184;28;20020;-66
2022/03/12 00:25:18;;;;;;;9.10;4.93;;;6.60;25.00;;;;;;5120211;28;20030;-66
2022/03/12 00:27:45;;;;;;;11.90;5.80;;;6.60;25.20;;;;;;5120111;28;20057;-67
2022/03/12 00:30:15;;;;;;;8.75;4.78;;;6.60;25.20;;;;;;5120228;28;20054;-66
2022/03/12 00:32:41;;;;;;;9.30;5.03;;;6.50;25.50;;;;;;5120111;28;20066;-65
2022/03/12 00:35:10;;;;;;;7.43;4.20;;;6.40;25.70;;;;;;5120077;28;20024;-66
2022/03/12 00:37:37;;;;;;;9.43;4.70;;;6.30;25.90;;;;;;5120063;28;20069;-66
2022/03/12 00:40:06;;;;;;;8.73;4.78;;;6.30;26.00;;;;;;5120119;28;20050;-67
2022/03/12 00:42:31;;;;;;;;;;;6.30;26.00;;;;;;5079882;28;20363;-66
2022/03/12 00:44:58;;;;;;;7.45;4.20;;;6.20;26.00;;;;;;5079499;28;19900;-65
2022/03/12 00:47:24;;;;;;;7.95;4.57;;;6.20;25.90;;;;;;5079437;28;20079;-65
2022/03/12 00:49:50;;;;;;;6.95;3.70;;;6.10;26.00;;;;;;5079464;28;20028;-66
2022/03/12 00:52:19;;;;;;;6.28;4.07;;;6.10;25.60;;;;;;5079359;28;20029;-65
2022/03/12 00:54:45;;;;;;;7.60;4.10;;;6.20;25.80;;;;;;5079298;28;20028;-67
2022/03/12 00:57:12;;;;;;;6.70;3.42;;;6.10;26.00;;;;;;5079388;28;20104;-67
2022/03/12 00:59:42;;;;;;;7.47;4.57;;;6.10;25.70;;;;;;5081789;28;20021;-67
2022/03/12 01:02:10;;;;;;;7.82;4.22;;;6.10;26.20;;;;;;5082884;28;20016;-66
2022/03/12 01:04:37;;;;;;;6.95;3.92;;;6.10;26.00;;;;;;5082941;28;20024;-67
2022/03/12 01:07:03;;;;;;;8.48;4.32;;;6.00;26.10;;;;;;5082916;28;20024;-67
2022/03/12 01:09:29;;;;;;;8.55;4.18;;;6.00;26.10;;;;;;5082826;28;20131;-67
2022/03/12 01:11:55;;;;;;;6.50;4.38;;;6.00;26.30;;;;;;5082745;28;20033;-66
2022/03/12 01:14:21;;;;;;;6.93;3.95;;;6.10;26.10;;;;;;5082813;28;20020;-67
2022/03/12 01:16:46;;;;;;;7.78;4.65;;;6.20;25.80;;;;;;5082674;28;20031;-67
2022/03/12 01:19:13;;;;;;;6.90;4.22;;;6.10;26.10;;;;;;5082778;28;20024;-66
2022/03/12 01:21:38;;;;;;;6.85;3.85;;;6.20;26.30;;;;;;5082513;28;20024;-66
2022/03/12 01:24:04;;;;;;;12.43;4.15;;;6.10;26.40;;;;;;5082583;28;20009;-67
2022/03/12 01:26:30;;;;;;;7.35;3.88;;;6.10;26.40;;;;;;5082571;28;20035;-67
2022/03/12 01:28:56;;;;;;;7.47;4.35;;;6.00;26.80;;;;;;5082491;28;20020;-66
2022/03/12 01:31:22;;;;;;;6.38;3.30;;;6.00;26.70;;;;;;5082477;28;20021;-67
2022/03/12 01:33:48;;;;;;;6.70;3.65;;;6.00;26.60;;;;;;5081153;28;20062;-66
2022/03/12 01:36:14;;;;;;;5.55;3.85;;;6.10;26.50;;;;;;5080989;28;20028;-66
2022/03/12 01:38:54;;;;;;;7.55;3.72;;;6.00;26.60;;;;;;5081018;28;20024;-67
2022/03/12 01:41:25;;;;;;;6.25;3.75;;;6.00;26.70;;;;;;5103207;28;20047;-67
2022/03/12 01:43:53;;;;;;;6.75;4.18;;;6.00;26.80;;;;;;5122951;28;20112;-67
2022/03/12 01:46:49;;;;;;;7.40;4.03;;;6.00;26.50;;;;;;5122832;28;20027;-67
2022/03/12 01:49:23;;;;;;;8.63;4.38;;;5.90;26.70;;;;;;5116500;28;20034;-67
2022/03/12 01:51:54;;;;;;;7.30;4.25;;;6.00;26.90;;;;;;5122764;28;20357;-67
2022/03/12 01:54:25;;;;;;;7.65;4.57;;;5.90;26.90;;;;;;5122774;28;20047;-66
2022/03/12 01:56:53;;;;;;;6.55;3.90;;;5.90;27.10;;;;;;5122682;28;20377;-66
2022/03/12 01:59:19;;;;;;;6.60;4.30;;;5.90;27.10;;;;;;5122564;27;20046;-67
2022/03/12 02:01:47;;;;;;;8.20;4.15;;;5.90;27.20;;;;;;5122444;28;20054;-67
2022/03/12 02:04:13;;;;;;;7.47;4.05;;;5.80;27.30;;;;;;5122551;28;20026;-67
2022/03/12 02:06:43;;;;;;;7.90;4.05;;;5.80;27.00;;;;;;5122458;28;20257;-68
2022/03/12 02:09:13;;;;;;;6.07;4.03;;;5.70;27.30;;;;;;5122462;28;20035;-66
2022/03/12 02:11:41;;;;;;;6.65;3.67;;;5.70;27.30;;;;;;5121631;28;20054;-67
2022/03/12 02:14:11;;;;;;;7.38;3.38;;;5.70;27.10;;;;;;5122328;28;20034;-66
2022/03/12 02:16:38;;;;;;;9.02;4.35;;;5.80;27.30;;;;;;5122312;28;20284;-66
2022/03/12 02:19:04;;;;;;;6.97;3.85;;;5.70;27.60;;;;;;5122245;28;20023;-66
2022/03/12 02:21:35;;;;;;;6.15;3.85;;;5.60;27.70;;;;;;5122139;28;20023;-66
2022/03/12 02:24:04;;;;;;;7.47;3.83;;;5.60;27.30;;;;;;5120873;28;20219;-66
2022/03/12 02:26:29;;;;;;;9.13;3.70;;;5.60;27.60;;;;;;5122135;28;20023;-67
2022/03/12 02:28:56;;;;;;;6.28;3.63;;;5.70;27.50;;;;;;5121956;28;20036;-67
2022/03/12 02:31:25;;;;;;;7.30;4.18;;;5.70;27.10;;;;;;5121984;28;20032;-66
2022/03/12 02:33:50;;;;;;;8.67;4.87;;;5.80;26.90;;;;;;5122012;28;20021;-68
2022/03/12 02:36:21;;;;;;;8.30;4.50;;;5.90;26.60;;;;;;5120522;28;20295;-66
2022/03/12 02:38:49;;;;;;;8.45;4.90;;;5.90;26.70;;;;;;5120482;28;20052;-67
2022/03/12 02:41:15;;;;;;;8.68;5.03;;;5.90;26.60;;;;;;5121503;28;20040;-66
2022/03/12 02:43:44;;;;;;;7.75;4.78;;;5.80;27.10;;;;;;5121733;28;20367;-66
2022/03/12 02:46:10;;;;;;;10.70;5.50;;;5.70;27.10;;;;;;5121691;28;20008;-66
2022/03/12 02:48:36;;;;;;;8.63;4.53;;;5.60;27.30;;;;;;5121533;28;20034;-66
2022/03/12 02:51:04;;;;;;;8.43;3.60;;;5.50;27.50;;;;;;5121188;28;20070;-65
2022/03/12 02:53:30;;;;;;;6.03;3.85;;;5.50;27.80;;;;;;5121547;28;20030;-66
2022/03/12 02:55:56;;;;;;;10.32;4.47;;;5.40;27.80;;;;;;5121419;28;20027;-65
2022/03/12 02:58:21;;;;;;;7.53;4.45;;;5.40;27.90;;;;;;5121431;28;20034;-65
2022/03/12 03:00:47;;;;;;;8.63;5.05;;;5.40;28.40;;;;;;5121284;28;20027;-67
2022/03/12 03:03:13;;;;;;;8.63;4.07;;;5.40;27.90;;;;;;5121317;28;20019;-66
2022/03/12 03:05:46;;;;;;;7.72;3.65;;;5.40;27.90;;;;;;5121201;28;20030;-66
2022/03/12 03:08:18;;;;;;;8.52;4.30;;;5.30;28.00;;;;;;5121228;28;20320;-67
2022/03/12 03:10:46;;;;;;;6.15;3.75;;;5.40;27.80;;;;;;5119899;28;20278;-67
2022/03/12 03:13:16;;;;;;;6.53;4.03;;;5.40;28.10;;;;;;5119935;28;20047;-66
2022/03/12 03:15:59;;;;;;;7.03;4.45;;;5.30;27.80;;;;;;5121085;28;20030;-66
2022/03/12 03:18:27;;;;;;;6.22;3.75;;;5.30;28.20;;;;;;5121088;28;20046;-67
2022/03/12 03:20:54;;;;;;;6.78;3.65;;;5.30;28.20;;;;;;5120992;28;20440;-66
2022/03/12 03:23:23;;;;;;;7.65;3.75;;;5.30;28.30;;;;;;5121000;28;20024;-66
2022/03/12 03:25:49;;;;;;;7.30;3.87;;;5.30;28.10;;;;;;5120963;27;20015;-65
2022/03/12 03:28:14;;;;;;;8.70;4.30;;;5.20;28.80;;;;;;5120913;28;20215;-66
2022/03/12 03:30:41;;;;;;;9.70;5.20;;;5.20;28.10;;;;;;5120869;28;20073;-66
2022/03/12 03:33:13;;;;;;;10.18;5.15;;;5.20;28.10;;;;;;5120836;28;20039;-66
2022/03/12 03:35:39;;;;;;;8.93;5.10;;;5.10;28.50;;;;;;5120761;28;20250;-67
2022/03/12 03:38:09;;;;;;;8.25;4.18;;;5.10;28.50;;;;;;5120671;28;20027;-67
2022/03/12 03:40:36;;;;;;;8.77;4.63;;;5.10;28.70;;;;;;5120339;28;20039;-67
2022/03/12 03:43:06;;;;;;;6.13;3.65;;;5.00;28.80;;;;;;5120656;28;20077;-67
2022/03/12 03:45:31;;;;;;;5.97;3.63;;;5.00;28.70;;;;;;5120607;28;20038;-66
2022/03/12 03:47:57;;;;;;;6.75;3.83;;;5.00;28.70;;;;;;5120563;28;20083;-67
2022/03/12 03:50:25;;;;;;;8.52;4.68;;;5.00;29.00;;;;;;5120485;28;20020;-65
2022/03/12 03:52:58;;;;;;;6.15;3.30;;;5.00;28.90;;;;;;5120546;28;20228;-67
2022/03/12 03:55:28;;;;;;;6.72;3.72;;;5.10;28.60;;;;;;5120492;28;20072;-66
2022/03/12 03:57:54;;;;;;;5.85;4.22;;;5.10;28.70;;;;;;5120529;28;20023;-67
2022/03/12 04:00:23;;;;;;;6.72;3.92;;;5.00;28.90;;;;;;5120415;28;20030;-67
2022/03/12 04:03:01;;;;;;;6.55;3.83;;;5.00;29.00;;;;;;5119045;28;20019;-67
2022/03/12 04:05:30;;;;;;;5.40;3.17;;;5.00;28.90;;;;;;5120436;28;20024;-67
2022/03/12 04:07:55;;;;;;;;;;;4.90;29.10;;;;;;5120825;28;20088;-67
2022/03/12 04:10:21;;;;;;;5.72;3.28;;;4.90;29.20;;;;;;5119031;28;19908;-65
2022/03/12 04:12:47;;;;;;;8.05;3.40;;;4.90;29.10;;;;;;5120258;28;20094;-66
2022/03/12 04:15:13;;;;;;;5.85;3.40;;;4.90;29.10;;;;;;5120294;28;20144;-67
2022/03/12 04:17:41;;;;;;;6.15;3.35;;;4.90;29.20;;;;;;5120245;28;20032;-66
2022/03/12 04:20:08;;;;;;;6.97;4.13;;;4.90;29.20;;;;;;5120346;28;20019;-67
2022/03/12 04:22:38;;;;;;;5.43;3.38;;;4.90;29.20;;;;;;5120165;28;20023;-66
2022/03/12 04:25:05;;;;;;;9.50;4.15;;;4.80;29.50;;;;;;5120177;28;20504;-66
2022/03/12 04:27:31;;;;;;;7.10;3.50;;;4.80;29.40;;;;;;5120172;28;20086;-66
2022/03/12 04:29:56;;;;;;;7.40;3.45;;;4.80;29.30;;;;;;5120094;28;20257;-66
2022/03/12 04:32:23;;;;;;;5.75;3.28;;;4.80;29.80;;;;;;5120186;28;20035;-66
2022/03/12 04:34:49;;;;;;;7.13;4.05;;;4.80;29.60;;;;;;5123165;28;20027;-66
2022/03/12 04:37:15;;;;;;;6.40;3.80;;;4.70;29.20;;;;;;5124158;28;20286;-66
2022/03/12 04:39:40;;;;;;;7.32;4.22;;;4.60;29.10;;;;;;5124118;28;20023;-66
2022/03/12 04:42:07;;;;;;;7.57;3.92;;;4.60;29.70;;;;;;5123911;28;20062;-67
2022/03/12 04:44:32;;;;;;;7.13;3.78;;;4.70;29.50;;;;;;5124055;28;20023;-67
2022/03/12 04:46:58;;;;;;;7.40;3.70;;;4.70;29.40;;;;;;5124033;28;20395;-67
2022/03/12 04:49:24;;;;;;;6.80;4.00;;;4.60;29.70;;;;;;5123912;28;20027;-66
2022/03/12 04:51:49;;;;;;;5.95;3.47;;;4.60;29.70;;;;;;5122620;28;20098;-66
2022/03/12 04:54:15;;;;;;;5.55;3.55;;;4.60;29.80;;;;;;5123816;28;20039;-67
2022/03/12 04:56:42;;;;;;;6.57;3.72;;;4.80;29.30;;;;;;5122541;28;20034;-67
2022/03/12 04:59:08;;;;;;;6.82;3.55;;;4.70;29.50;;;;;;5123805;28;20091;-68
2022/03/12 05:01:33;;;;;;;6.13;3.42;;;4.80;29.60;;;;;;5123675;28;20106;-67
2022/03/12 05:03:59;;;;;;;7.15;3.50;;;4.70;29.50;;;;;;5123667;28;20041;-67
2022/03/12 05:06:26;;;;;;;6.35;3.58;;;4.70;29.60;;;;;;5123510;28;20028;-67
2022/03/12 05:08:53;;;;;;;6.65;3.58;;;4.80;29.40;;;;;;5123614;27;20485;-67
2022/03/12 05:11:19;;;;;;;7.32;4.15;;;4.80;29.20;;;;;;5123537;27;20258;-67
2022/03/12 05:13:44;;;;;;;5.45;3.60;;;4.80;29.20;;;;;;5123491;28;20023;-66
2022/03/12 05:16:11;;;;;;;9.70;3.83;;;4.80;29.20;;;;;;5123537;28;20298;-67
2022/03/12 05:18:41;;;;;;;8.57;4.60;;;4.80;29.00;;;;;;5123454;28;20084;-67
2022/03/12 05:21:07;;;;;;;8.90;3.88;;;4.80;29.00;;;;;;5123324;28;20027;-67
2022/03/12 05:23:33;;;;;;;4.38;3.10;;;4.80;29.00;;;;;;5123336;28;20057;-66
2022/03/12 05:25:59;;;;;;;5.55;3.35;;;4.80;29.00;;;;;;5123272;28;20065;-66
2022/03/12 05:28:30;;;;;;;4.88;3.35;;;4.80;29.20;;;;;;5123205;28;20216;-66
2022/03/12 05:30:57;;;;;;;5.65;3.20;;;4.90;29.20;;;;;;5121886;28;20064;-66
2022/03/12 05:33:23;;;;;;;5.85;3.85;;;4.90;28.70;;;;;;5123089;28;20043;-65
2022/03/12 05:35:51;;;;;;;7.70;3.25;;;4.90;28.80;;;;;;5123127;28;20011;-66
2022/03/12 05:38:17;;;;;;;6.88;3.33;;;4.90;29.10;;;;;;5123043;27;20015;-66
2022/03/12 05:40:44;;;;;;;6.53;3.33;;;4.90;29.20;;;;;;5122738;27;20048;-67
2022/03/12 05:43:21;;;;;;;5.70;3.70;;;4.90;29.20;;;;;;5122988;28;20205;-67
2022/03/12 05:45:48;;;;;;;6.85;2.90;;;4.90;29.10;;;;;;5121717;28;20091;-66
2022/03/12 05:48:16;;;;;;;5.68;3.15;;;4.90;29.20;;;;;;5121454;28;20368;-65
2022/03/12 05:50:43;;;;;;;7.40;3.35;;;4.90;29.40;;;;;;5122823;28;20027;-66
2022/03/12 05:53:10;;;;;;;4.57;3.00;;;4.90;29.40;;;;;;5122780;28;20645;-67
2022/03/12 05:55:39;;;;;;;8.60;3.15;;;4.90;29.70;;;;;;5122676;28;20024;-69
2022/03/12 05:58:15;;;;;;;5.82;2.78;;;5.00;29.20;;;;;;5122576;28;20026;-67
2022/03/12 06:00:41;;;;;;;6.75;3.92;;;4.90;29.70;;;;;;5122524;28;20056;-66
2022/03/12 06:03:10;;;;;;;9.32;4.30;;;4.80;30.00;;;;;;5121189;28;20055;-66
2022/03/12 06:05:43;;;;;;;9.13;4.70;;;4.60;29.90;;;;;;5122555;28;20035;-65
2022/03/12 06:08:15;;;;;;;8.75;5.13;;;4.60;30.10;;;;;;5122503;28;20201;-66
2022/03/12 06:10:42;;;;;;;10.13;4.53;;;4.60;29.90;;;;;;5122449;28;20051;-67
2022/03/12 06:13:11;;;;;;;8.57;3.80;;;4.60;30.80;;;;;;5122336;28;20120;-67
2022/03/12 06:15:39;;;;;;;10.35;4.43;;;4.60;30.80;;;;;;5122361;28;20438;-66
2022/03/12 06:18:05;;;;;;;8.10;3.75;;;4.60;30.30;;;;;;5122259;28;20028;-67
2022/03/12 06:20:33;;;;;;;11.48;4.05;;;4.70;30.20;;;;;;5122160;28;20072;-66
2022/03/12 06:22:58;;;;;;;6.32;3.65;;;4.80;30.30;;;;;;5122307;28;20043;-66
2022/03/12 06:25:24;;;;;;;6.22;3.20;;;4.90;29.80;;;;;;5122124;28;20024;-65
2022/03/12 06:27:54;;;;;;;8.15;3.70;;;5.00;29.40;;;;;;5122321;28;20020;-66
2022/03/12 06:30:22;;;;;;;5.45;3.15;;;5.10;29.20;;;;;;5122316;28;20021;-67
2022/03/12 06:32:48;;;;;;;6.97;3.70;;;5.10;29.00;;;;;;5121919;28;20085;-65
2022/03/12 06:35:15;;;;;;;5.28;3.25;;;5.30;28.80;;;;;;5121865;28;20034;-65
2022/03/12 06:37:42;;;;;;;6.30;3.20;;;5.40;28.70;;;;;;5121847;28;20024;-65
2022/03/12 06:40:11;;;;;;;5.30;3.45;;;5.40;28.80;;;;;;5122025;28;20371;-66
2022/03/12 06:42:40;;;;;;;10.73;3.97;;;5.50;28.60;;;;;;5121584;28;20051;-66
2022/03/12 06:45:08;;;;;;;8.70;3.88;;;5.50;28.80;;;;;;5121702;28;20019;-67
2022/03/12 06:47:37;;;;;;;7.25;3.20;;;5.50;28.50;;;;;;5121618;27;20020;-65
2022/03/12 06:50:05;;;;;;;7.57;3.53;;;5.60;28.60;;;;;;5121569;28;20037;-65
2022/03/12 06:52:31;;;;;;;6.93;3.67;;;5.70;28.60;;;;;;5121559;28;20027;-65
2022/03/12 06:54:57;;;;;;;5.00;2.95;;;5.80;28.50;;;;;;5121476;28;20032;-66
2022/03/12 06:57:23;;;;;;;5.63;3.30;;;5.90;28.40;;;;;;5121181;28;20072;-66
2022/03/12 06:59:49;;;;;;;5.95;3.00;;;5.90;28.30;;;;;;5121397;28;20031;-66
2022/03/12 07:02:14;;;;;;;5.20;3.45;;;6.00;28.40;;;;;;5121263;28;20024;-66
2022/03/12 07:04:40;;;;;;;7.60;3.70;;;6.00;28.30;;;;;;5121336;28;20026;-67
2022/03/12 07:07:06;;;;;;;4.90;2.80;;;6.10;28.10;;;;;;5121330;28;20031;-66
2022/03/12 07:09:34;;;;;;;8.23;3.03;;;6.10;28.10;;;;;;5121211;28;20087;-66
2022/03/12 07:12:00;;;;;;;8.18;3.47;;;6.20;28.10;;;;;;5121236;28;20029;-67
2022/03/12 07:14:27;;;;;;;6.25;2.80;;;6.20;28.10;;;;;;5121166;28;20027;-67
2022/03/12 07:16:53;;;;;;;8.60;3.63;;;6.30;28.10;;;;;;5121170;28;20028;-65
2022/03/12 07:19:19;;;;;;;4.47;2.67;;;6.20;28.20;;;;;;5121084;28;20031;-66
2022/03/12 07:21:45;;;;;;;5.88;3.53;;;6.30;28.10;;;;;;5120929;28;20033;-66
2022/03/12 07:24:12;;;;;;;9.07;3.90;;;6.30;28.20;;;;;;5120989;28;20064;-66
2022/03/12 07:26:39;;;;;;;4.78;3.17;;;6.40;28.20;;;;;;5120978;28;20043;-68
2022/03/12 07:29:05;;;;;;;7.53;3.55;;;6.40;28.10;;;;;;5120978;28;20366;-66
2022/03/12 07:31:30;;;;;;;5.38;3.08;;;6.50;28.00;;;;;;5120901;28;20027;-66
2022/03/12 07:33:56;;;;;;;5.60;3.95;;;6.50;28.00;;;;;;5120864;28;20031;-65
2022/03/12 07:36:21;;;;;;;7.22;4.57;;;6.50;28.00;;;;;;5120840;28;20054;-68
2022/03/12 07:38:47;;;;;;;5.65;3.45;;;6.60;28.00;;;;;;5120764;28;20032;-65
2022/03/12 07:41:13;;;;;;;7.60;3.35;;;6.60;28.00;;;;;;5120504;28;20058;-65
2022/03/12 07:43:39;;;;;;;5.60;3.05;;;6.70;27.90;;;;;;5120736;28;20259;-66
2022/03/12 07:46:06;;;;;;;4.30;2.65;;;6.70;28.00;;;;;;5120650;28;20073;-65
2022/03/12 07:48:31;;;;;;;6.95;3.00;;;6.80;27.90;;;;;;5120696;28;20328;-65
2022/03/12 07:51:00;;;;;;;5.57;3.53;;;6.90;27.90;;;;;;5120623;28;20038;-66
2022/03/12 07:53:26;;;;;;;4.50;3.08;;;6.90;27.80;;;;;;5120544;28;20031;-67
2022/03/12 07:55:52;;;;;;;5.28;3.10;;;6.90;27.80;;;;;;5120843;28;20023;-66
2022/03/12 07:58:18;;;;;;;5.93;3.42;;;7.00;27.70;;;;;;5120503;28;20031;-66
2022/03/12 08:00:44;;;;;;;6.57;3.40;;;7.00;27.60;;;;;;5120419;28;20030;-65
2022/03/12 08:03:10;;;;;;;6.75;3.83;;;7.00;27.70;;;;;;5120498;28;20396;-65
2022/03/12 08:05:36;;;;;;;6.45;3.25;;;7.10;28.00;;;;;;5120374;28;20324;-66
2022/03/12 08:08:04;;;;;;;6.13;3.55;;;7.10;27.90;;;;;;5119720;28;20027;-65
2022/03/12 08:11:24;;;;;;;5.90;3.35;;;7.20;27.60;;;;;;5120359;28;20323;-66
2022/03/12 08:13:15;;;;;;;6.15;2.92;;;7.20;27.60;;;;;;5120206;28;20035;-66
2022/03/12 08:15:41;;;;;;;5.75;3.17;;;7.20;27.70;;;;;;5120320;28;20019;-66
2022/03/12 08:18:07;;;;;;;6.03;3.45;;;7.20;27.60;;;;;;5120241;28;20019;-66
2022/03/12 08:20:34;;;;;;;7.28;3.42;;;7.30;27.50;;;;;;5120335;28;20342;-65
2022/03/12 08:23:00;;;;;;;4.95;3.00;;;7.20;27.50;;;;;;5120273;28;20242;-65
2022/03/12 08:25:25;;;;;;;5.25;3.20;;;7.20;27.40;;;;;;5120214;28;20449;-67
2022/03/12 08:27:51;;;;;;;7.65;3.33;;;7.40;27.50;;;;;;5120195;28;20023;-65
2022/03/12 08:30:19;;;;;;;5.78;3.20;;;7.30;27.30;;;;;;5120137;28;20034;-66
2022/03/12 08:32:45;;;;;;;5.65;3.20;;;7.40;27.30;;;;;;5120136;28;20029;-66
2022/03/12 08:35:12;;;;;;;6.13;3.28;;;7.40;27.50;;;;;;5118885;28;20063;-66
2022/03/12 08:37:39;;;;;;;7.35;2.88;;;7.50;27.40;;;;;;5120080;28;20047;-66
2022/03/12 08:40:06;;;;;;;4.70;2.90;;;7.50;27.50;;;;;;5120103;28;20027;-67
2022/03/12 08:42:33;;;;;;;6.10;3.50;;;7.50;27.30;;;;;;5119920;28;20047;-67
2022/03/12 08:44:59;;;;;;;4.95;2.88;;;7.50;27.20;;;;;;5120092;28;20110;-67
2022/03/12 08:47:25;;;;;;;3.90;2.72;;;7.60;27.00;;;;;;5119969;28;20027;-66
2022/03/12 08:49:50;;;;;;;7.88;3.90;;;7.60;27.10;;;;;;5120026;28;20023;-65
2022/03/12 08:52:16;;;;;;;6.30;3.53;;;7.60;27.10;;;;;;5118627;28;20024;-66
2022/03/12 08:54:42;;;;;;;6.25;3.75;;;7.50;27.00;;;;;;5119987;28;20072;-66
2022/03/12 08:57:08;;;;;;;8.65;3.40;;;7.60;27.00;;;;;;5118642;28;20424;-66
2022/03/12 08:59:33;;;;;;;6.32;3.58;;;7.70;27.10;;;;;;5119962;28;20047;-66
2022/03/12 09:01:59;;;;;;;6.78;3.33;;;7.70;27.00;;;;;;5118865;28;20243;-66
2022/03/12 09:04:25;;;;;;;6.80;3.58;;;7.70;27.30;;;;;;5119903;28;20035;-67
2022/03/12 09:06:51;;;;;;;9.77;3.38;;;7.70;27.30;;;;;;5119907;28;20035;-66
2022/03/12 09:09:16;;;;;;;6.65;3.38;;;7.70;27.20;;;;;;5119855;28;20023;-65
2022/03/12 09:11:42;;;;;;;7.07;3.92;;;7.70;27.40;;;;;;5119827;28;20031;-66
2022/03/12 09:14:08;;;;;;;7.18;3.55;;;7.80;27.20;;;;;;5119796;28;20100;-65
2022/03/12 09:16:36;;;;;;;5.25;2.90;;;7.80;27.30;;;;;;5119805;28;20516;-65
2022/03/12 09:19:02;;;;;;;6.25;3.90;;;7.80;27.40;;;;;;5119843;28;20028;-67
2022/03/12 09:21:28;;;;;;;7.00;3.83;;;7.90;27.40;;;;;;5123641;28;20076;-66
2022/03/12 09:23:54;;;;;;;6.78;4.10;;;8.00;27.30;;;;;;5123404;28;20028;-66
2022/03/12 09:26:21;;;;;;;7.57;3.83;;;8.10;27.30;;;;;;5123338;28;20023;-67
2022/03/12 09:28:48;;;;;;;8.50;4.20;;;8.10;27.20;;;;;;5123233;28;20015;-66
2022/03/12 09:31:14;;;;;;;17.13;4.10;;;8.10;27.10;;;;;;5123274;28;20116;-66
2022/03/12 09:33:41;;;;;;;6.13;3.78;;;8.20;27.00;;;;;;5123213;28;20028;-66
2022/03/12 09:36:08;;;;;;;7.10;4.03;;;8.20;27.30;;;;;;5123115;27;20331;-67
2022/03/12 09:38:35;;;;;;;6.47;3.20;;;8.30;27.30;;;;;;5123157;28;20625;-66
2022/03/12 09:41:01;;;;;;;6.80;3.78;;;8.30;27.10;;;;;;5122797;28;20082;-65
2022/03/12 09:43:27;;;;;;;8.50;4.28;;;8.30;27.10;;;;;;5123025;27;20219;-66
2022/03/12 09:45:53;;;;;;;6.32;3.08;;;8.30;27.10;;;;;;5121681;28;20047;-65
2022/03/12 09:48:19;;;;;;;4.95;3.35;;;8.30;26.80;;;;;;5122878;28;20020;-66
2022/03/12 09:50:45;;;;;;;5.35;3.33;;;8.30;26.90;;;;;;5122774;28;20042;-66
2022/03/12 09:53:11;;;;;;;5.65;3.28;;;8.30;26.80;;;;;;5122738;28;20351;-66
2022/03/12 09:55:38;;;;;;;6.03;3.50;;;8.40;26.80;;;;;;5122713;28;20371;-67
2022/03/12 09:58:04;;;;;;;6.43;3.65;;;8.50;26.90;;;;;;5122669;28;20254;-65
2022/03/12 10:00:30;;;;;;;5.95;3.58;;;8.50;26.90;;;;;;5122592;28;20015;-67
2022/03/12 10:02:57;;;;;;;5.00;3.75;;;8.50;26.80;;;;;;5122462;28;20034;-66
2022/03/12 10:05:23;;;;;;;6.10;3.00;;;8.60;26.90;;;;;;5122536;28;20096;-66
2022/03/12 10:07:49;;;;;;;6.05;3.35;;;8.50;26.90;;;;;;5122480;28;20023;-67
2022/03/12 10:10:18;;;;;;;5.60;3.50;;;8.60;26.70;;;;;;5122393;28;20030;-66
2022/03/12 10:12:45;;;;;;;6.22;3.50;;;8.60;26.90;;;;;;5122439;27;20363;-66
2022/03/12 10:15:12;;;;;;;5.85;3.22;;;8.60;27.00;;;;;;5122365;28;20072;-66
2022/03/12 10:17:39;;;;;;;5.85;3.30;;;8.70;26.70;;;;;;5122234;28;20031;-67
2022/03/12 10:20:07;;;;;;;5.13;3.20;;;8.70;27.00;;;;;;5122242;28;20080;-66
2022/03/12 10:22:33;;;;;;;6.95;3.47;;;8.80;26.80;;;;;;5122148;28;20251;-66
2022/03/12 10:24:59;;;;;;;5.38;3.47;;;8.80;27.30;;;;;;5122184;28;20027;-66
2022/03/12 10:27:25;;;;;;;5.90;3.40;;;8.80;27.20;;;;;;5122027;28;20335;-66
2022/03/12 10:29:51;;;;;;;4.22;2.88;;;8.80;27.20;;;;;;5122139;28;20031;-66
2022/03/12 10:32:25;;;;;;;4.20;2.80;;;8.80;27.00;;;;;;5121296;28;20038;-67
2022/03/12 10:34:53;;;;;;;6.28;3.03;;;8.80;27.60;;;;;;5122102;28;20254;-66
2022/03/12 10:37:24;;;;;;;4.70;3.22;;;8.90;27.40;;;;;;5121883;28;20091;-66
2022/03/12 10:40:19;;;;;;;7.15;3.55;;;8.90;27.70;;;;;;5121894;28;20027;-65
2022/03/12 10:43:03;;;;;;;5.30;3.05;;;8.90;27.60;;;;;;5121591;28;20047;-66
2022/03/12 10:45:37;;;;;;;6.28;3.40;;;9.00;27.40;;;;;;5121703;28;20050;-66
2022/03/12 10:48:04;;;;;;;7.40;3.50;;;9.00;27.70;;;;;;5121771;28;20031;-65
2022/03/12 10:50:34;;;;;;;6.70;3.00;;;9.10;27.50;;;;;;5121686;28;20335;-65
2022/03/12 10:53:05;;;;;;;6.00;3.13;;;9.10;27.30;;;;;;5120297;28;20023;-67
2022/03/12 10:55:36;;;;;;;7.35;3.50;;;9.10;27.00;;;;;;5120282;28;20031;-66
2022/03/12 10:58:13;;;;;;;6.53;3.45;;;9.10;27.40;;;;;;5120238;28;20028;-67
2022/03/12 11:00:44;;;;;;;5.00;2.83;;;9.10;27.60;;;;;;5121441;28;20058;-65
2022/03/12 11:03:15;;;;;;;6.00;3.20;;;9.10;27.60;;;;;;5121421;28;20099;-66
2022/03/12 11:05:43;;;;;;;5.88;3.65;;;9.10;27.60;;;;;;5120090;28;20250;-67
2022/03/12 11:08:30;;;;;;;6.63;3.67;;;9.10;27.40;;;;;;5121319;28;20020;-66
2022/03/12 11:11:16;;;;;;;7.75;3.58;;;9.30;27.80;;;;;;5121138;28;20020;-67
2022/03/12 11:13:46;;;;;;;5.28;3.22;;;9.40;27.80;;;;;;5121285;28;20219;-66
2022/03/12 11:16:17;;;;;;;6.45;3.70;;;9.40;28.20;;;;;;5121160;28;20082;-65
2022/03/12 11:18:54;;;;;;;4.25;3.13;;;9.40;27.70;;;;;;5121171;28;20347;-66
2022/03/12 11:21:33;;;;;;;6.32;3.83;;;9.40;27.70;;;;;;5121017;28;20090;-66
2022/03/12 11:23:59;;;;;;;;;;;9.40;27.50;;;;;;5120196;28;20027;-66
2022/03/12 11:26:27;;;;;;;7.75;3.70;;;9.40;27.60;;;;;;5120922;28;19907;-66
2022/03/12 11:28:57;;;;;;;6.00;3.50;;;9.50;27.60;;;;;;5121021;28;20035;-66
2022/03/12 11:31:49;;;;;;;4.97;3.58;;;9.50;27.90;;;;;;5121201;28;20031;-66
2022/03/12 11:34:20;;;;;;;7.22;4.07;;;9.50;27.70;;;;;;5120806;28;20026;-65
2022/03/12 11:36:55;;;;;;;6.28;3.70;;;9.60;27.90;;;;;;5120850;28;20019;-68
2022/03/12 11:39:52;;;;;;;4.90;3.30;;;9.60;27.80;;;;;;5120806;28;20024;-67
2022/03/12 11:42:24;;;;;;;7.40;3.38;;;9.60;27.80;;;;;;5120166;28;20610;-67
2022/03/12 11:44:55;;;;;;;7.25;3.88;;;9.70;27.90;;;;;;5120102;28;20316;-65
2022/03/12 11:47:28;;;;;;;8.38;3.78;;;9.70;27.80;;;;;;5120726;28;20027;-66
2022/03/12 11:49:56;;;;;;;7.20;3.75;;;9.70;27.80;;;;;;5120643;28;20031;-66
2022/03/12 11:52:22;;;;;;;4.78;3.15;;;9.70;27.70;;;;;;5120633;28;20307;-66
2022/03/12 11:54:52;;;;;;;5.80;3.90;;;9.70;27.80;;;;;;5120547;28;20125;-66
2022/03/12 11:57:23;;;;;;;6.50;4.05;;;9.70;27.80;;;;;;5120468;28;20250;-65
2022/03/12 11:59:50;;;;;;;4.85;3.15;;;9.70;28.00;;;;;;5120490;28;20030;-66
2022/03/12 12:02:29;;;;;;;7.10;3.40;;;9.80;28.10;;;;;;5120368;28;20095;-66
2022/03/12 12:04:58;;;;;;;6.07;3.53;;;9.80;28.00;;;;;;5120391;28;20023;-67
2022/03/12 12:07:27;;;;;;;5.32;3.47;;;9.80;27.90;;;;;;5120374;28;20020;-67
2022/03/12 12:09:54;;;;;;;5.55;3.28;;;9.80;27.70;;;;;;5120385;28;20044;-67
2022/03/12 12:12:27;;;;;;;6.07;3.50;;;9.80;28.00;;;;;;5120342;28;20034;-67
2022/03/12 12:14:56;;;;;;;6.03;3.70;;;9.90;28.10;;;;;;5120639;28;20257;-66
2022/03/12 12:17:21;;;;;;;;;;;9.90;28.20;;;;;;5120800;28;20023;-68
2022/03/12 12:19:47;;;;;;;6.00;3.90;;;9.90;28.10;;;;;;5120290;28;19915;-66
2022/03/12 12:22:14;;;;;;;6.82;3.65;;;10.00;28.20;;;;;;5120141;28;20028;-67
2022/03/12 12:24:42;;;;;;;5.53;3.22;;;9.90;28.10;;;;;;5120253;28;20263;-67
2022/03/12 12:27:13;;;;;;;5.73;3.90;;;9.90;28.10;;;;;;5120172;28;20019;-66
2022/03/12 12:29:52;;;;;;;6.30;3.53;;;10.00;28.00;;;;;;5120250;28;20248;-68
2022/03/12 12:32:23;;;;;;;4.32;3.28;;;10.00;28.10;;;;;;5120226;28;20047;-67
2022/03/12 12:35:04;;;;;;;5.57;3.55;;;10.00;28.20;;;;;;5120124;28;20031;-66
2022/03/12 12:37:56;;;;;;;5.47;3.85;;;10.00;28.20;;;;;;5120130;28;20038;-66
2022/03/12 12:40:26;;;;;;;4.57;3.22;;;10.10;28.20;;;;;;5120135;28;20043;-66
2022/03/12 12:42:54;;;;;;;6.47;3.65;;;10.00;28.20;;;;;;5119876;28;20358;-66
2022/03/12 12:45:22;;;;;;;5.75;3.97;;;10.10;28.20;;;;;;5120134;28;20359;-67
2022/03/12 12:48:05;;;;;;;5.40;3.17;;;10.10;28.20;;;;;;5120022;28;20030;-65
2022/03/12 12:50:30;;;;;;;5.45;3.38;;;10.10;28.20;;;;;;5120086;28;20026;-66
2022/03/12 12:53:13;;;;;;;6.85;3.92;;;10.10;28.20;;;;;;5119938;28;20031;-66
2022/03/12 12:55:40;;;;;;;6.43;3.55;;;10.10;28.30;;;;;;5122569;28;20028;-67
2022/03/12 12:58:07;;;;;;;8.35;3.25;;;10.10;28.30;;;;;;5123842;28;20028;-66
2022/03/12 13:00:35;;;;;;;4.57;3.22;;;10.20;28.30;;;;;;5123797;28;20023;-66
2022/03/12 13:03:27;;;;;;;6.50;3.40;;;10.20;28.30;;;;;;5123735;28;20323;-67